sensor_id;sensor_type;location;lat;lon;timestamp;P1;durP1;ratioP1;P2;durP2;ratioP2
1276;SDS011;631;51.024;13.826;2024-03-23T00:53:42;19.87;;;18.27;;
1276;SDS011;631;51.024;13.826;2024-03-23T00:56:08;20.03;;;18.33;;
1276;SDS011;631;51.024;13.826;2024-03-23T00:58:34;19.57;;;17.97;;
1276;SDS011;631;51.024;13.826;2024-03-23T01:01:00;19.57;;;18.07;;
1276;SDS011;631;51.024;13.826;2024-03-23T01:03:25;21.00;;;19.20;;
1276;SDS011;631;51.024;13.826;2024-03-23T01:05:51;21.67;;;19.57;;
1276;SDS011;631;51.024;13.826;2024-03-23T01:08:19;21.23;;;19.23;;
1276;SDS011;631;51.024;13.826;2024-03-23T01:10:53;20.93;;;18.83;;
1276;SDS011;631;51.024;13.826;2024-03-23T01:13:23;20.20;;;18.30;;
1276;SDS011;631;51.024;13.826;2024-03-23T01:15:52;22.00;;;20.07;;
1276;SDS011;631;51.024;13.826;2024-03-23T01:18:19;20.03;;;18.23;;
1276;SDS011;631;51.024;13.826;2024-03-23T01:20:46;21.37;;;19.50;;
1276;SDS011;631;51.024;13.826;2024-03-23T01:23:11;21.57;;;19.57;;
1276;SDS011;631;51.024;13.826;2024-03-23T01:25:37;21.43;;;19.53;;
1276;SDS011;631;51.024;13.826;2024-03-23T01:28:03;20.77;;;19.00;;
1276;SDS011;631;51.024;13.826;2024-03-23T01:30:29;21.60;;;19.60;;
1276;SDS011;631;51.024;13.826;2024-03-23T01:32:55;22.23;;;20.10;;
1276;SDS011;631;51.024;13.826;2024-03-23T01:35:21;21.97;;;19.70;;
1276;SDS011;631;51.024;13.826;2024-03-23T01:37:47;22.20;;;19.90;;
1276;SDS011;631;51.024;13.826;2024-03-23T01:40:12;22.70;;;20.70;;
1276;SDS011;631;51.024;13.826;2024-03-23T01:42:40;23.13;;;20.97;;
1276;SDS011;631;51.024;13.826;2024-03-23T01:45:07;22.13;;;20.03;;
1276;SDS011;631;51.024;13.826;2024-03-23T01:47:33;22.27;;;20.17;;
1276;SDS011;631;51.024;13.826;2024-03-23T01:49:59;22.47;;;20.37;;
1276;SDS011;631;51.024;13.826;2024-03-23T01:52:25;23.10;;;20.93;;
1276;SDS011;631;51.024;13.826;2024-03-23T01:54:52;22.70;;;20.37;;
1276;SDS011;631;51.024;13.826;2024-03-23T01:57:18;22.80;;;20.70;;
1276;SDS011;631;51.024;13.826;2024-03-23T01:59:48;22.77;;;20.40;;
1276;SDS011;631;51.024;13.826;2024-03-23T02:02:14;23.03;;;20.83;;
1276;SDS011;631;51.024;13.826;2024-03-23T02:04:42;21.87;;;19.70;;
1276;SDS011;631;51.024;13.826;2024-03-23T02:07:08;21.57;;;19.47;;
1276;SDS011;631;51.024;13.826;2024-03-23T02:09:33;22.07;;;19.70;;
1276;SDS011;631;51.024;13.826;2024-03-23T02:12:01;22.53;;;20.37;;
1276;SDS011;631;51.024;13.826;2024-03-23T02:14:27;21.57;;;19.47;;
1276;SDS011;631;51.024;13.826;2024-03-23T02:16:53;22.90;;;20.63;;
1276;SDS011;631;51.024;13.826;2024-03-23T02:19:18;21.60;;;19.50;;
1276;SDS011;631;51.024;13.826;2024-03-23T02:21:44;22.00;;;19.90;;
1276;SDS011;631;51.024;13.826;2024-03-23T02:24:11;23.17;;;20.97;;
1276;SDS011;631;51.024;13.826;2024-03-23T02:26:37;22.00;;;19.63;;
1276;SDS011;631;51.024;13.826;2024-03-23T02:29:02;21.30;;;19.20;;
1276;SDS011;631;51.024;13.826;2024-03-23T02:31:28;21.43;;;19.50;;
1276;SDS011;631;51.024;13.826;2024-03-23T02:33:54;22.37;;;19.97;;
1276;SDS011;631;51.024;13.826;2024-03-23T02:36:19;21.60;;;19.60;;
1276;SDS011;631;51.024;13.826;2024-03-23T02:38:46;22.07;;;19.93;;
1276;SDS011;631;51.024;13.826;2024-03-23T02:41:11;22.97;;;20.70;;
1276;SDS011;631;51.024;13.826;2024-03-23T02:43:37;22.20;;;20.17;;
1276;SDS011;631;51.024;13.826;2024-03-23T02:46:03;23.20;;;20.83;;
1276;SDS011;631;51.024;13.826;2024-03-23T02:48:29;22.97;;;20.70;;
1276;SDS011;631;51.024;13.826;2024-03-23T02:50:55;21.73;;;19.60;;
1276;SDS011;631;51.024;13.826;2024-03-23T02:53:20;24.93;;;20.70;;
1276;SDS011;631;51.024;13.826;2024-03-23T02:55:46;22.20;;;19.90;;
1276;SDS011;631;51.024;13.826;2024-03-23T02:58:12;22.63;;;20.10;;
1276;SDS011;631;51.024;13.826;2024-03-23T03:00:37;21.63;;;19.57;;
1276;SDS011;631;51.024;13.826;2024-03-23T03:03:03;23.97;;;20.60;;
1276;SDS011;631;51.024;13.826;2024-03-23T03:05:29;22.10;;;20.13;;
1276;SDS011;631;51.024;13.826;2024-03-23T03:07:54;22.63;;;20.37;;
1276;SDS011;631;51.024;13.826;2024-03-23T03:10:20;22.67;;;20.23;;
1276;SDS011;631;51.024;13.826;2024-03-23T03:12:45;24.10;;;20.30;;
1276;SDS011;631;51.024;13.826;2024-03-23T03:15:11;23.07;;;20.77;;
1276;SDS011;631;51.024;13.826;2024-03-23T03:17:37;22.97;;;20.20;;
1276;SDS011;631;51.024;13.826;2024-03-23T03:20:03;24.37;;;21.87;;
1276;SDS011;631;51.024;13.826;2024-03-23T03:22:29;22.40;;;20.23;;
1276;SDS011;631;51.024;13.826;2024-03-23T03:24:55;24.63;;;19.97;;
1276;SDS011;631;51.024;13.826;2024-03-23T03:27:21;22.90;;;20.63;;
1276;SDS011;631;51.024;13.826;2024-03-23T03:29:48;24.27;;;21.70;;
1276;SDS011;631;51.024;13.826;2024-03-23T03:32:13;25.17;;;21.50;;
1276;SDS011;631;51.024;13.826;2024-03-23T03:34:39;24.33;;;21.93;;
1276;SDS011;631;51.024;13.826;2024-03-23T03:37:04;23.20;;;20.70;;
1276;SDS011;631;51.024;13.826;2024-03-23T03:39:30;24.00;;;21.47;;
1276;SDS011;631;51.024;13.826;2024-03-23T03:41:56;27.30;;;22.37;;
1276;SDS011;631;51.024;13.826;2024-03-23T03:44:21;25.77;;;22.23;;
1276;SDS011;631;51.024;13.826;2024-03-23T03:46:47;24.83;;;20.20;;
1276;SDS011;631;51.024;13.826;2024-03-23T03:49:12;23.20;;;20.80;;
1276;SDS011;631;51.024;13.826;2024-03-23T03:51:38;22.97;;;19.47;;
1276;SDS011;631;51.024;13.826;2024-03-23T03:54:03;24.63;;;21.97;;
1276;SDS011;631;51.024;13.826;2024-03-23T03:56:29;27.57;;;20.93;;
1276;SDS011;631;51.024;13.826;2024-03-23T03:58:55;24.00;;;21.53;;
1276;SDS011;631;51.024;13.826;2024-03-23T04:01:20;26.43;;;22.80;;
1276;SDS011;631;51.024;13.826;2024-03-23T04:03:46;27.33;;;21.97;;
1276;SDS011;631;51.024;13.826;2024-03-23T04:06:11;25.50;;;20.57;;
1276;SDS011;631;51.024;13.826;2024-03-23T04:08:43;26.70;;;22.50;;
1276;SDS011;631;51.024;13.826;2024-03-23T04:11:08;26.03;;;22.03;;
1276;SDS011;631;51.024;13.826;2024-03-23T04:13:34;28.70;;;23.40;;
1276;SDS011;631;51.024;13.826;2024-03-23T04:16:00;28.03;;;23.30;;
1276;SDS011;631;51.024;13.826;2024-03-23T04:18:25;28.80;;;22.03;;
1276;SDS011;631;51.024;13.826;2024-03-23T04:20:51;25.30;;;21.53;;
1276;SDS011;631;51.024;13.826;2024-03-23T04:23:17;28.57;;;23.63;;
1276;SDS011;631;51.024;13.826;2024-03-23T04:25:43;23.33;;;20.70;;
1276;SDS011;631;51.024;13.826;2024-03-23T04:28:08;28.40;;;23.47;;
1276;SDS011;631;51.024;13.826;2024-03-23T04:30:34;23.83;;;21.30;;
1276;SDS011;631;51.024;13.826;2024-03-23T04:33:00;26.83;;;23.00;;
1276;SDS011;631;51.024;13.826;2024-03-23T04:35:26;27.17;;;22.23;;
1276;SDS011;631;51.024;13.826;2024-03-23T04:37:52;26.80;;;22.30;;
1276;SDS011;631;51.024;13.826;2024-03-23T04:40:18;30.00;;;22.67;;
1276;SDS011;631;51.024;13.826;2024-03-23T04:42:44;26.50;;;22.80;;
1276;SDS011;631;51.024;13.826;2024-03-23T04:45:10;26.40;;;22.53;;
1276;SDS011;631;51.024;13.826;2024-03-23T04:47:36;25.17;;;21.40;;
1276;SDS011;631;51.024;13.826;2024-03-23T04:50:03;30.27;;;22.43;;
1276;SDS011;631;51.024;13.826;2024-03-23T04:52:29;24.50;;;20.77;;
1276;SDS011;631;51.024;13.826;2024-03-23T04:54:54;26.47;;;21.13;;
1276;SDS011;631;51.024;13.826;2024-03-23T04:57:20;27.70;;;21.73;;
1276;SDS011;631;51.024;13.826;2024-03-23T04:59:46;25.43;;;21.40;;
1276;SDS011;631;51.024;13.826;2024-03-23T05:02:12;28.03;;;23.00;;
1276;SDS011;631;51.024;13.826;2024-03-23T05:04:38;27.50;;;21.33;;
1276;SDS011;631;51.024;13.826;2024-03-23T05:07:03;31.67;;;24.23;;
1276;SDS011;631;51.024;13.826;2024-03-23T05:09:29;27.77;;;22.30;;
1276;SDS011;631;51.024;13.826;2024-03-23T05:12:04;29.13;;;23.23;;
1276;SDS011;631;51.024;13.826;2024-03-23T05:14:30;25.80;;;22.07;;
1276;SDS011;631;51.024;13.826;2024-03-23T05:16:55;28.77;;;22.63;;
1276;SDS011;631;51.024;13.826;2024-03-23T05:19:21;30.00;;;23.10;;
1276;SDS011;631;51.024;13.826;2024-03-23T05:21:47;35.63;;;24.27;;
1276;SDS011;631;51.024;13.826;2024-03-23T05:24:13;31.33;;;24.50;;
1276;SDS011;631;51.024;13.826;2024-03-23T05:26:38;32.97;;;23.37;;
1276;SDS011;631;51.024;13.826;2024-03-23T05:29:04;35.53;;;23.00;;
1276;SDS011;631;51.024;13.826;2024-03-23T05:31:32;31.97;;;23.70;;
1276;SDS011;631;51.024;13.826;2024-03-23T05:33:57;32.60;;;23.90;;
1276;SDS011;631;51.024;13.826;2024-03-23T05:36:23;29.80;;;23.13;;
1276;SDS011;631;51.024;13.826;2024-03-23T05:38:51;35.83;;;25.03;;
1276;SDS011;631;51.024;13.826;2024-03-23T05:41:17;30.27;;;24.10;;
1276;SDS011;631;51.024;13.826;2024-03-23T05:43:42;26.83;;;23.13;;
1276;SDS011;631;51.024;13.826;2024-03-23T05:46:08;29.50;;;23.20;;
1276;SDS011;631;51.024;13.826;2024-03-23T05:48:34;34.33;;;24.43;;
1276;SDS011;631;51.024;13.826;2024-03-23T05:51:00;31.20;;;23.30;;
1276;SDS011;631;51.024;13.826;2024-03-23T05:53:26;28.40;;;23.40;;
1276;SDS011;631;51.024;13.826;2024-03-23T05:55:59;29.97;;;23.10;;
1276;SDS011;631;51.024;13.826;2024-03-23T05:58:28;32.97;;;24.33;;
1276;SDS011;631;51.024;13.826;2024-03-23T06:00:58;34.47;;;24.20;;
1276;SDS011;631;51.024;13.826;2024-03-23T06:03:25;35.70;;;24.50;;
1276;SDS011;631;51.024;13.826;2024-03-23T06:05:51;34.17;;;23.40;;
1276;SDS011;631;51.024;13.826;2024-03-23T06:08:18;30.80;;;22.13;;
1276;SDS011;631;51.024;13.826;2024-03-23T06:10:44;29.37;;;24.57;;
1276;SDS011;631;51.024;13.826;2024-03-23T06:13:10;37.83;;;26.33;;
1276;SDS011;631;51.024;13.826;2024-03-23T06:15:36;29.70;;;24.70;;
1276;SDS011;631;51.024;13.826;2024-03-23T06:18:03;32.17;;;25.50;;
1276;SDS011;631;51.024;13.826;2024-03-23T06:20:29;34.77;;;26.17;;
1276;SDS011;631;51.024;13.826;2024-03-23T06:22:55;30.90;;;24.60;;
1276;SDS011;631;51.024;13.826;2024-03-23T06:25:21;34.50;;;25.67;;
1276;SDS011;631;51.024;13.826;2024-03-23T06:27:46;35.00;;;26.50;;
1276;SDS011;631;51.024;13.826;2024-03-23T06:30:12;37.57;;;26.87;;
1276;SDS011;631;51.024;13.826;2024-03-23T06:32:38;32.47;;;26.93;;
1276;SDS011;631;51.024;13.826;2024-03-23T06:35:03;32.10;;;26.27;;
1276;SDS011;631;51.024;13.826;2024-03-23T06:37:33;33.07;;;25.10;;
1276;SDS011;631;51.024;13.826;2024-03-23T06:39:59;35.60;;;27.17;;
1276;SDS011;631;51.024;13.826;2024-03-23T06:42:25;41.87;;;28.20;;
1276;SDS011;631;51.024;13.826;2024-03-23T06:44:50;39.43;;;27.67;;
1276;SDS011;631;51.024;13.826;2024-03-23T06:47:16;43.00;;;27.07;;
1276;SDS011;631;51.024;13.826;2024-03-23T06:49:42;35.17;;;27.10;;
1276;SDS011;631;51.024;13.826;2024-03-23T06:52:07;41.30;;;28.37;;
1276;SDS011;631;51.024;13.826;2024-03-23T06:54:33;44.50;;;30.10;;
1276;SDS011;631;51.024;13.826;2024-03-23T06:56:59;37.70;;;27.67;;
1276;SDS011;631;51.024;13.826;2024-03-23T06:59:24;40.03;;;27.77;;
1276;SDS011;631;51.024;13.826;2024-03-23T07:01:50;38.20;;;30.03;;
1276;SDS011;631;51.024;13.826;2024-03-23T07:04:15;40.00;;;29.67;;
1276;SDS011;631;51.024;13.826;2024-03-23T07:06:44;41.90;;;30.70;;
1276;SDS011;631;51.024;13.826;2024-03-23T07:09:10;44.50;;;31.07;;
1276;SDS011;631;51.024;13.826;2024-03-23T07:11:36;41.33;;;31.03;;
1276;SDS011;631;51.024;13.826;2024-03-23T07:14:02;39.03;;;30.50;;
1276;SDS011;631;51.024;13.826;2024-03-23T07:16:28;36.33;;;30.27;;
1276;SDS011;631;51.024;13.826;2024-03-23T07:18:54;37.90;;;29.70;;
1276;SDS011;631;51.024;13.826;2024-03-23T07:21:20;36.67;;;28.73;;
1276;SDS011;631;51.024;13.826;2024-03-23T07:23:46;34.80;;;28.67;;
1276;SDS011;631;51.024;13.826;2024-03-23T07:26:11;39.57;;;28.93;;
1276;SDS011;631;51.024;13.826;2024-03-23T07:28:37;36.10;;;28.23;;
1276;SDS011;631;51.024;13.826;2024-03-23T07:31:08;35.10;;;27.93;;
1276;SDS011;631;51.024;13.826;2024-03-23T07:33:36;40.73;;;29.57;;
1276;SDS011;631;51.024;13.826;2024-03-23T07:36:03;33.70;;;29.90;;
1276;SDS011;631;51.024;13.826;2024-03-23T07:38:29;33.97;;;29.23;;
1276;SDS011;631;51.024;13.826;2024-03-23T07:43:39;42.13;;;31.93;;
1276;SDS011;631;51.024;13.826;2024-03-23T07:46:08;39.57;;;32.10;;
1276;SDS011;631;51.024;13.826;2024-03-23T07:48:34;39.80;;;29.97;;
1276;SDS011;631;51.024;13.826;2024-03-23T07:53:29;39.67;;;31.30;;
1276;SDS011;631;51.024;13.826;2024-03-23T07:55:59;35.77;;;29.60;;
1276;SDS011;631;51.024;13.826;2024-03-23T07:58:29;37.57;;;30.77;;
1276;SDS011;631;51.024;13.826;2024-03-23T08:00:55;39.43;;;29.97;;
1276;SDS011;631;51.024;13.826;2024-03-23T08:03:21;34.33;;;29.40;;
1276;SDS011;631;51.024;13.826;2024-03-23T08:05:47;31.97;;;27.53;;
1276;SDS011;631;51.024;13.826;2024-03-23T08:08:13;31.87;;;28.07;;
1276;SDS011;631;51.024;13.826;2024-03-23T08:10:49;32.40;;;28.30;;
1276;SDS011;631;51.024;13.826;2024-03-23T08:13:15;33.83;;;27.90;;
1276;SDS011;631;51.024;13.826;2024-03-23T08:15:41;30.37;;;27.13;;
1276;SDS011;631;51.024;13.826;2024-03-23T08:18:07;31.90;;;27.97;;
1276;SDS011;631;51.024;13.826;2024-03-23T08:20:33;32.03;;;28.47;;
1276;SDS011;631;51.024;13.826;2024-03-23T08:22:58;35.17;;;28.53;;
1276;SDS011;631;51.024;13.826;2024-03-23T08:25:24;31.50;;;27.60;;
1276;SDS011;631;51.024;13.826;2024-03-23T08:27:50;28.83;;;25.87;;
1276;SDS011;631;51.024;13.826;2024-03-23T08:30:16;29.80;;;26.70;;
1276;SDS011;631;51.024;13.826;2024-03-23T08:32:41;28.47;;;25.47;;
1276;SDS011;631;51.024;13.826;2024-03-23T08:35:07;30.20;;;27.10;;
1276;SDS011;631;51.024;13.826;2024-03-23T08:37:34;33.80;;;30.30;;
1276;SDS011;631;51.024;13.826;2024-03-23T08:40:00;32.97;;;29.47;;
1276;SDS011;631;51.024;13.826;2024-03-23T08:42:25;30.47;;;27.40;;
1276;SDS011;631;51.024;13.826;2024-03-23T08:44:51;31.20;;;28.00;;
1276;SDS011;631;51.024;13.826;2024-03-23T08:47:17;28.13;;;25.13;;
1276;SDS011;631;51.024;13.826;2024-03-23T08:49:42;28.00;;;25.40;;
1276;SDS011;631;51.024;13.826;2024-03-23T08:52:09;27.37;;;24.87;;
1276;SDS011;631;51.024;13.826;2024-03-23T08:54:35;28.30;;;25.40;;
1276;SDS011;631;51.024;13.826;2024-03-23T08:57:01;26.47;;;23.83;;
1276;SDS011;631;51.024;13.826;2024-03-23T08:59:26;28.00;;;25.20;;
1276;SDS011;631;51.024;13.826;2024-03-23T09:01:52;24.90;;;22.47;;
1276;SDS011;631;51.024;13.826;2024-03-23T09:04:18;25.67;;;23.27;;
1276;SDS011;631;51.024;13.826;2024-03-23T09:06:44;26.50;;;24.03;;
1276;SDS011;631;51.024;13.826;2024-03-23T09:09:10;25.70;;;23.07;;
1276;SDS011;631;51.024;13.826;2024-03-23T09:11:35;26.47;;;23.73;;
1276;SDS011;631;51.024;13.826;2024-03-23T09:14:02;27.53;;;24.73;;
1276;SDS011;631;51.024;13.826;2024-03-23T09:16:28;25.60;;;22.90;;
1276;SDS011;631;51.024;13.826;2024-03-23T09:18:54;28.23;;;25.57;;
1276;SDS011;631;51.024;13.826;2024-03-23T09:21:19;26.93;;;24.37;;
1276;SDS011;631;51.024;13.826;2024-03-23T09:23:45;26.03;;;23.50;;
1276;SDS011;631;51.024;13.826;2024-03-23T09:26:11;27.10;;;24.30;;
1276;SDS011;631;51.024;13.826;2024-03-23T09:28:37;27.40;;;24.70;;
1276;SDS011;631;51.024;13.826;2024-03-23T09:31:03;30.07;;;26.03;;
1276;SDS011;631;51.024;13.826;2024-03-23T09:33:29;26.57;;;23.87;;
1276;SDS011;631;51.024;13.826;2024-03-23T09:35:55;25.40;;;23.07;;
1276;SDS011;631;51.024;13.826;2024-03-23T09:38:21;25.97;;;23.50;;
1276;SDS011;631;51.024;13.826;2024-03-23T09:40:48;26.80;;;23.90;;
1276;SDS011;631;51.024;13.826;2024-03-23T09:43:18;25.77;;;23.20;;
1276;SDS011;631;51.024;13.826;2024-03-23T09:45:44;25.23;;;22.83;;
1276;SDS011;631;51.024;13.826;2024-03-23T09:48:10;22.73;;;20.80;;
1276;SDS011;631;51.024;13.826;2024-03-23T09:50:40;24.50;;;22.30;;
1276;SDS011;631;51.024;13.826;2024-03-23T09:53:07;28.90;;;26.40;;
1276;SDS011;631;51.024;13.826;2024-03-23T09:55:34;28.67;;;26.17;;
1276;SDS011;631;51.024;13.826;2024-03-23T09:58:03;28.67;;;25.80;;
1276;SDS011;631;51.024;13.826;2024-03-23T10:00:33;27.80;;;25.30;;
1276;SDS011;631;51.024;13.826;2024-03-23T10:03:00;26.93;;;24.47;;
1276;SDS011;631;51.024;13.826;2024-03-23T10:05:29;20.90;;;19.30;;
1276;SDS011;631;51.024;13.826;2024-03-23T10:10:39;16.30;;;15.20;;
1276;SDS011;631;51.024;13.826;2024-03-23T10:13:08;14.73;;;13.60;;
1276;SDS011;631;51.024;13.826;2024-03-23T10:15:34;14.83;;;13.93;;
1276;SDS011;631;51.024;13.826;2024-03-23T10:18:19;13.70;;;13.00;;
1276;SDS011;631;51.024;13.826;2024-03-23T10:20:53;13.87;;;12.97;;
1276;SDS011;631;51.024;13.826;2024-03-23T10:23:35;13.27;;;12.67;;
1276;SDS011;631;51.024;13.826;2024-03-23T10:26:22;11.27;;;10.70;;
1276;SDS011;631;51.024;13.826;2024-03-23T10:28:56;12.83;;;12.23;;
1276;SDS011;631;51.024;13.826;2024-03-23T10:31:25;12.67;;;12.07;;
1276;SDS011;631;51.024;13.826;2024-03-23T10:33:51;12.23;;;11.63;;
1276;SDS011;631;51.024;13.826;2024-03-23T10:36:19;12.30;;;11.70;;
1276;SDS011;631;51.024;13.826;2024-03-23T10:38:46;12.77;;;12.07;;
1276;SDS011;631;51.024;13.826;2024-03-23T10:41:12;13.17;;;12.50;;
1276;SDS011;631;51.024;13.826;2024-03-23T10:43:38;12.50;;;11.80;;
1276;SDS011;631;51.024;13.826;2024-03-23T10:46:04;11.57;;;11.13;;
1276;SDS011;631;51.024;13.826;2024-03-23T10:48:33;12.50;;;12.00;;
1276;SDS011;631;51.024;13.826;2024-03-23T10:50:59;12.73;;;12.23;;
1276;SDS011;631;51.024;13.826;2024-03-23T10:53:25;12.83;;;12.33;;
1276;SDS011;631;51.024;13.826;2024-03-23T10:55:52;12.30;;;11.80;;
1276;SDS011;631;51.024;13.826;2024-03-23T10:59:01;12.90;;;12.23;;
1276;SDS011;631;51.024;13.826;2024-03-23T11:01:12;13.30;;;12.60;;
1276;SDS011;631;51.024;13.826;2024-03-23T11:03:39;13.17;;;12.63;;
1276;SDS011;631;51.024;13.826;2024-03-23T11:06:09;12.70;;;12.20;;
1276;SDS011;631;51.024;13.826;2024-03-23T11:08:38;12.70;;;12.20;;
1276;SDS011;631;51.024;13.826;2024-03-23T11:11:11;13.33;;;12.73;;
1276;SDS011;631;51.024;13.826;2024-03-23T11:13:38;13.30;;;12.70;;
1276;SDS011;631;51.024;13.826;2024-03-23T11:16:23;13.30;;;12.73;;
1276;SDS011;631;51.024;13.826;2024-03-23T11:21:59;13.73;;;13.13;;
1276;SDS011;631;51.024;13.826;2024-03-23T11:24:26;13.30;;;12.70;;
1276;SDS011;631;51.024;13.826;2024-03-23T11:26:51;12.73;;;12.23;;
1276;SDS011;631;51.024;13.826;2024-03-23T11:29:17;12.90;;;12.40;;
1276;SDS011;631;51.024;13.826;2024-03-23T11:34:12;12.30;;;11.80;;
1276;SDS011;631;51.024;13.826;2024-03-23T11:36:40;13.00;;;12.40;;
1276;SDS011;631;51.024;13.826;2024-03-23T11:39:38;13.60;;;12.90;;
1276;SDS011;631;51.024;13.826;2024-03-23T11:41:57;12.70;;;12.20;;
1276;SDS011;631;51.024;13.826;2024-03-23T11:44:23;12.70;;;12.20;;
1276;SDS011;631;51.024;13.826;2024-03-23T11:46:51;12.90;;;12.40;;
1276;SDS011;631;51.024;13.826;2024-03-23T11:51:52;12.80;;;12.30;;
1276;SDS011;631;51.024;13.826;2024-03-23T11:54:23;12.35;;;11.85;;
1276;SDS011;631;51.024;13.826;2024-03-23T11:59:31;12.85;;;12.25;;
1276;SDS011;631;51.024;13.826;2024-03-23T12:02:08;11.95;;;11.45;;
1276;SDS011;631;51.024;13.826;2024-03-23T12:04:36;11.93;;;11.43;;
1276;SDS011;631;51.024;13.826;2024-03-23T12:07:18;12.60;;;12.00;;
1276;SDS011;631;51.024;13.826;2024-03-23T12:09:46;12.37;;;11.87;;
1276;SDS011;631;51.024;13.826;2024-03-23T12:12:28;13.00;;;12.40;;
1276;SDS011;631;51.024;13.826;2024-03-23T12:15:06;12.30;;;11.80;;
1276;SDS011;631;51.024;13.826;2024-03-23T12:17:33;12.90;;;12.30;;
1276;SDS011;631;51.024;13.826;2024-03-23T12:20:00;13.50;;;12.90;;
1276;SDS011;631;51.024;13.826;2024-03-23T12:22:26;13.10;;;12.50;;
1276;SDS011;631;51.024;13.826;2024-03-23T12:24:52;13.80;;;13.00;;
1276;SDS011;631;51.024;13.826;2024-03-23T12:27:18;13.30;;;12.70;;
1276;SDS011;631;51.024;13.826;2024-03-23T12:29:43;13.30;;;12.70;;
1276;SDS011;631;51.024;13.826;2024-03-23T12:32:11;13.97;;;13.27;;
1276;SDS011;631;51.024;13.826;2024-03-23T12:34:38;13.10;;;12.50;;
1276;SDS011;631;51.024;13.826;2024-03-23T12:37:04;14.47;;;13.77;;
1276;SDS011;631;51.024;13.826;2024-03-23T12:39:31;14.40;;;13.70;;
1276;SDS011;631;51.024;13.826;2024-03-23T12:41:56;13.73;;;13.13;;
1276;SDS011;631;51.024;13.826;2024-03-23T12:44:22;14.27;;;13.67;;
1276;SDS011;631;51.024;13.826;2024-03-23T12:46:47;14.40;;;13.80;;
1276;SDS011;631;51.024;13.826;2024-03-23T12:49:13;12.97;;;12.37;;
1276;SDS011;631;51.024;13.826;2024-03-23T12:51:39;14.00;;;13.30;;
1276;SDS011;631;51.024;13.826;2024-03-23T12:54:11;13.33;;;12.73;;
1276;SDS011;631;51.024;13.826;2024-03-23T12:56:37;14.60;;;13.90;;
1276;SDS011;631;51.024;13.826;2024-03-23T12:59:02;13.90;;;13.27;;
1276;SDS011;631;51.024;13.826;2024-03-23T13:01:28;13.73;;;13.03;;
1276;SDS011;631;51.024;13.826;2024-03-23T13:03:53;13.37;;;12.77;;
1276;SDS011;631;51.024;13.826;2024-03-23T13:06:19;13.50;;;12.90;;
1276;SDS011;631;51.024;13.826;2024-03-23T13:08:45;12.60;;;11.90;;
1276;SDS011;631;51.024;13.826;2024-03-23T13:11:11;12.60;;;12.00;;
1276;SDS011;631;51.024;13.826;2024-03-23T13:13:37;12.27;;;11.57;;
1276;SDS011;631;51.024;13.826;2024-03-23T13:16:03;12.20;;;11.60;;
1276;SDS011;631;51.024;13.826;2024-03-23T13:18:30;12.17;;;11.43;;
1276;SDS011;631;51.024;13.826;2024-03-23T13:20:57;12.20;;;11.60;;
1276;SDS011;631;51.024;13.826;2024-03-23T13:23:23;12.00;;;11.40;;
1276;SDS011;631;51.024;13.826;2024-03-23T13:25:55;13.00;;;12.30;;
1276;SDS011;631;51.024;13.826;2024-03-23T13:28:24;12.13;;;11.43;;
1276;SDS011;631;51.024;13.826;2024-03-23T13:30:52;12.40;;;11.70;;
1276;SDS011;631;51.024;13.826;2024-03-23T13:33:19;11.70;;;11.10;;
1276;SDS011;631;51.024;13.826;2024-03-23T13:38:16;12.10;;;11.50;;
1276;SDS011;631;51.024;13.826;2024-03-23T13:40:49;12.07;;;11.47;;
1276;SDS011;631;51.024;13.826;2024-03-23T13:43:15;11.40;;;10.80;;
1276;SDS011;631;51.024;13.826;2024-03-23T13:45:40;11.80;;;11.20;;
1276;SDS011;631;51.024;13.826;2024-03-23T13:48:06;12.30;;;11.60;;
1276;SDS011;631;51.024;13.826;2024-03-23T13:50:32;12.60;;;11.90;;
1276;SDS011;631;51.024;13.826;2024-03-23T13:52:57;12.40;;;11.50;;
1276;SDS011;631;51.024;13.826;2024-03-23T13:55:23;12.43;;;11.73;;
1276;SDS011;631;51.024;13.826;2024-03-23T13:57:48;12.63;;;11.93;;
1276;SDS011;631;51.024;13.826;2024-03-23T14:00:15;11.70;;;11.10;;
1276;SDS011;631;51.024;13.826;2024-03-23T14:02:43;11.50;;;10.90;;
1276;SDS011;631;51.024;13.826;2024-03-23T14:05:09;12.13;;;11.53;;
1276;SDS011;631;51.024;13.826;2024-03-23T14:07:36;11.97;;;11.27;;
1276;SDS011;631;51.024;13.826;2024-03-23T14:10:05;11.60;;;11.00;;
1276;SDS011;631;51.024;13.826;2024-03-23T14:12:35;12.50;;;11.70;;
1276;SDS011;631;51.024;13.826;2024-03-23T14:15:05;11.80;;;11.23;;
1276;SDS011;631;51.024;13.826;2024-03-23T14:17:31;12.17;;;11.37;;
1276;SDS011;631;51.024;13.826;2024-03-23T14:19:57;12.47;;;11.87;;
1276;SDS011;631;51.024;13.826;2024-03-23T14:22:26;11.93;;;11.33;;
1276;SDS011;631;51.024;13.826;2024-03-23T14:24:52;12.43;;;11.77;;
1276;SDS011;631;51.024;13.826;2024-03-23T14:27:18;11.67;;;11.00;;
1276;SDS011;631;51.024;13.826;2024-03-23T14:29:45;12.23;;;11.43;;
1276;SDS011;631;51.024;13.826;2024-03-23T14:32:12;12.33;;;11.63;;
1276;SDS011;631;51.024;13.826;2024-03-23T14:34:37;12.13;;;11.43;;
1276;SDS011;631;51.024;13.826;2024-03-23T14:37:03;12.60;;;11.97;;
1276;SDS011;631;51.024;13.826;2024-03-23T14:39:30;11.30;;;10.77;;
1276;SDS011;631;51.024;13.826;2024-03-23T14:41:56;12.07;;;11.27;;
1276;SDS011;631;51.024;13.826;2024-03-23T14:44:22;11.37;;;10.87;;
1276;SDS011;631;51.024;13.826;2024-03-23T14:46:48;12.20;;;11.50;;
1276;SDS011;631;51.024;13.826;2024-03-23T14:49:14;11.60;;;10.60;;
1276;SDS011;631;51.024;13.826;2024-03-23T14:51:43;11.83;;;11.03;;
1276;SDS011;631;51.024;13.826;2024-03-23T14:54:08;11.13;;;10.53;;
1276;SDS011;631;51.024;13.826;2024-03-23T14:56:35;11.13;;;10.53;;
1276;SDS011;631;51.024;13.826;2024-03-23T14:59:00;11.43;;;10.83;;
1276;SDS011;631;51.024;13.826;2024-03-23T15:01:26;11.93;;;11.13;;
1276;SDS011;631;51.024;13.826;2024-03-23T15:03:51;11.20;;;10.60;;
1276;SDS011;631;51.024;13.826;2024-03-23T15:06:18;12.40;;;11.80;;
1276;SDS011;631;51.024;13.826;2024-03-23T15:08:44;9.57;;;9.17;;
1276;SDS011;631;51.024;13.826;2024-03-23T15:11:10;10.63;;;10.10;;
1276;SDS011;631;51.024;13.826;2024-03-23T15:13:36;12.07;;;11.37;;
1276;SDS011;631;51.024;13.826;2024-03-23T15:16:02;11.87;;;10.80;;
1276;SDS011;631;51.024;13.826;2024-03-23T15:18:29;11.50;;;10.70;;
1276;SDS011;631;51.024;13.826;2024-03-23T15:20:55;11.40;;;10.80;;
1276;SDS011;631;51.024;13.826;2024-03-23T15:23:22;12.13;;;11.53;;
1276;SDS011;631;51.024;13.826;2024-03-23T15:25:57;11.43;;;10.93;;
1276;SDS011;631;51.024;13.826;2024-03-23T15:28:23;11.47;;;10.87;;
1276;SDS011;631;51.024;13.826;2024-03-23T15:30:52;12.10;;;11.30;;
1276;SDS011;631;51.024;13.826;2024-03-23T15:33:18;11.83;;;11.13;;
1276;SDS011;631;51.024;13.826;2024-03-23T15:35:44;11.30;;;10.40;;
1276;SDS011;631;51.024;13.826;2024-03-23T15:38:09;12.43;;;11.73;;
1276;SDS011;631;51.024;13.826;2024-03-23T15:40:35;12.10;;;11.40;;
1276;SDS011;631;51.024;13.826;2024-03-23T15:43:01;12.37;;;11.70;;
1276;SDS011;631;51.024;13.826;2024-03-23T15:45:26;13.60;;;12.60;;
1276;SDS011;631;51.024;13.826;2024-03-23T15:47:52;17.23;;;15.83;;
1276;SDS011;631;51.024;13.826;2024-03-23T15:50:18;14.03;;;12.90;;
1276;SDS011;631;51.024;13.826;2024-03-23T15:52:43;13.93;;;13.03;;
1276;SDS011;631;51.024;13.826;2024-03-23T15:55:09;14.70;;;13.50;;
1276;SDS011;631;51.024;13.826;2024-03-23T15:57:35;12.20;;;11.40;;
1276;SDS011;631;51.024;13.826;2024-03-23T16:00:02;12.33;;;11.63;;